createdAt,value
2023-05-17T00:00:51.489Z,14.60
2023-05-17T00:03:18.935Z,14.60
2023-05-17T00:05:46.472Z,14.60
2023-05-17T00:08:14.228Z,14.60
2023-05-17T00:10:42.054Z,14.60
2023-05-17T00:13:09.452Z,14.60
2023-05-17T00:15:37.101Z,14.50
2023-05-17T00:18:04.604Z,14.50
2023-05-17T00:20:32.107Z,14.50
2023-05-17T00:22:59.564Z,14.50
2023-05-17T00:25:27.223Z,14.60
2023-05-17T00:27:54.911Z,14.50
2023-05-17T00:30:22.393Z,14.50
2023-05-17T00:32:50.684Z,14.50
2023-05-17T00:35:19.294Z,14.40
2023-05-17T00:37:48.106Z,14.40
2023-05-17T00:40:18.542Z,14.40
2023-05-17T00:42:46.004Z,14.30
2023-05-17T00:45:13.664Z,14.30
2023-05-17T00:47:41.175Z,14.30
2023-05-17T00:50:09.063Z,14.30
2023-05-17T00:52:36.758Z,14.20
2023-05-17T00:55:04.354Z,14.20
2023-05-17T00:57:32.293Z,14.10
2023-05-17T01:00:02.036Z,14.10
2023-05-17T01:02:29.858Z,14.10
2023-05-17T01:04:58.002Z,14.10
2023-05-17T01:07:25.571Z,14.10
2023-05-17T01:09:53.236Z,14.20
2023-05-17T01:12:50.892Z,14.10
2023-05-17T01:15:35.099Z,14.10
2023-05-17T01:18:26.797Z,14.00
2023-05-17T01:20:59.608Z,14.10
2023-05-17T01:23:49.080Z,14.10
2023-05-17T01:26:41.080Z,14.10
2023-05-17T01:29:10.082Z,14.20
2023-05-17T01:31:38.413Z,14.20
2023-05-17T01:34:10.184Z,14.20
2023-05-17T01:36:37.649Z,14.20
2023-05-17T01:39:05.068Z,14.20
2023-05-17T01:41:40.971Z,14.10
2023-05-17T01:44:38.204Z,14.10
2023-05-17T01:47:37.716Z,14.10
2023-05-17T01:50:07.607Z,14.10
2023-05-17T01:52:51.401Z,14.00
2023-05-17T01:55:50.566Z,14.00
2023-05-17T01:58:21.781Z,14.10
2023-05-17T02:00:52.306Z,14.10
2023-05-17T02:03:20.387Z,14.00
2023-05-17T02:05:52.866Z,13.90
2023-05-17T02:08:20.280Z,13.90
2023-05-17T02:10:47.703Z,13.90
2023-05-17T02:13:15.197Z,14.00
2023-05-17T02:15:42.616Z,14.00
2023-05-17T02:18:11.806Z,14.00
2023-05-17T02:20:40.084Z,13.90
2023-05-17T02:23:08.314Z,14.00
2023-05-17T02:25:35.979Z,14.00
2023-05-17T02:28:03.393Z,14.00
2023-05-17T02:30:31.215Z,14.10
2023-05-17T02:32:58.749Z,14.10
2023-05-17T02:35:26.762Z,14.10
2023-05-17T02:37:54.533Z,14.10
2023-05-17T02:40:21.981Z,14.10
2023-05-17T02:42:49.464Z,14.10
2023-05-17T02:45:16.989Z,14.00
2023-05-17T02:47:44.555Z,14.10
2023-05-17T02:50:12.227Z,14.10
2023-05-17T02:52:39.891Z,14.10
2023-05-17T02:55:08.425Z,14.10
2023-05-17T02:57:35.849Z,14.00
2023-05-17T03:00:03.842Z,14.00
2023-05-17T03:02:31.388Z,14.00
2023-05-17T03:04:59.166Z,14.10
2023-05-17T03:07:26.741Z,14.10
2023-05-17T03:09:54.850Z,14.10
2023-05-17T03:12:22.818Z,14.10
2023-05-17T03:14:50.373Z,14.00
2023-05-17T03:17:17.837Z,14.00
2023-05-17T03:19:45.792Z,14.00
2023-05-17T03:22:14.124Z,14.00
2023-05-17T03:24:41.615Z,14.00
2023-05-17T03:27:09.039Z,14.10
2023-05-17T03:29:36.999Z,14.10
2023-05-17T03:32:05.457Z,14.10
2023-05-17T03:34:33.263Z,14.10
2023-05-17T03:37:01.752Z,14.20
2023-05-17T03:39:29.251Z,14.20
2023-05-17T03:41:56.708Z,14.20
2023-05-17T03:44:24.904Z,14.10
2023-05-17T03:46:56.015Z,14.10
2023-05-17T03:49:24.760Z,14.10
2023-05-17T03:51:52.812Z,14.00
2023-05-17T03:54:20.613Z,14.00
2023-05-17T03:56:50.120Z,14.00
2023-05-17T03:59:18.758Z,14.00
2023-05-17T04:01:46.570Z,14.10
2023-05-17T04:04:14.964Z,14.00
2023-05-17T04:06:42.440Z,14.00
2023-05-17T04:09:11.150Z,14.00
2023-05-17T04:11:41.134Z,14.00
2023-05-17T04:14:08.813Z,13.90
2023-05-17T04:16:36.457Z,13.90
2023-05-17T04:19:04.721Z,13.90
2023-05-17T04:21:32.339Z,13.90
2023-05-17T04:23:59.848Z,13.90
2023-05-17T04:26:27.842Z,13.90
2023-05-17T04:28:55.396Z,14.00
2023-05-17T04:31:23.708Z,14.00
2023-05-17T04:33:51.633Z,14.10
2023-05-17T04:36:19.273Z,14.10
2023-05-17T04:38:47.246Z,14.20
2023-05-17T04:41:18.374Z,14.30
2023-05-17T04:43:45.808Z,14.30
2023-05-17T04:46:21.498Z,14.30
2023-05-17T04:48:49.485Z,14.30
2023-05-17T04:51:17.175Z,14.30
2023-05-17T04:53:44.632Z,14.40
2023-05-17T04:56:16.574Z,14.40
2023-05-17T04:58:46.734Z,14.40
2023-05-17T05:01:14.252Z,14.40
2023-05-17T05:03:45.106Z,14.40
2023-05-17T05:06:13.610Z,14.50
2023-05-17T05:08:42.030Z,14.50
2023-05-17T05:11:11.949Z,14.50
2023-05-17T05:13:41.667Z,14.60
2023-05-17T05:16:09.264Z,14.60
2023-05-17T05:18:38.152Z,14.60
2023-05-17T05:21:06.499Z,14.60
2023-05-17T05:23:34.019Z,14.60
2023-05-17T05:26:01.592Z,14.60
2023-05-17T05:28:29.046Z,14.60
2023-05-17T05:31:03.167Z,14.70
2023-05-17T05:33:38.609Z,14.70
2023-05-17T05:36:06.359Z,14.80
2023-05-17T05:38:33.885Z,14.80
2023-05-17T05:41:01.704Z,14.80
2023-05-17T05:43:31.116Z,14.90
2023-05-17T05:45:58.716Z,14.90
2023-05-17T05:48:26.461Z,15.00
2023-05-17T05:50:53.970Z,15.00
2023-05-17T05:53:21.405Z,15.10
2023-05-17T05:55:52.896Z,15.20
2023-05-17T05:58:21.529Z,15.30
2023-05-17T06:00:49.923Z,15.30
2023-05-17T06:03:17.391Z,15.40
2023-05-17T06:05:44.989Z,15.40
2023-05-17T06:08:12.487Z,15.50
2023-05-17T06:10:40.085Z,15.60
2023-05-17T06:13:07.505Z,15.60
2023-05-17T06:15:34.901Z,15.60
2023-05-17T06:18:02.666Z,15.60
2023-05-17T06:20:30.443Z,15.50
2023-05-17T06:22:58.879Z,15.60
2023-05-17T06:25:26.378Z,15.70
2023-05-17T06:27:53.765Z,15.70
2023-05-17T06:30:21.205Z,15.70
2023-05-17T06:32:48.657Z,15.70
2023-05-17T06:35:16.300Z,15.70
2023-05-17T06:37:43.729Z,15.80
2023-05-17T06:40:16.683Z,15.80
2023-05-17T06:42:59.205Z,15.80
2023-05-17T06:45:27.492Z,15.90
2023-05-17T06:47:54.958Z,15.90
2023-05-17T06:50:22.491Z,16.00
2023-05-17T06:52:49.891Z,16.20
2023-05-17T06:55:17.291Z,16.30
2023-05-17T06:57:44.790Z,16.40
2023-05-17T07:00:13.117Z,16.60
2023-05-17T07:02:40.928Z,16.60
2023-05-17T07:05:08.792Z,16.60
2023-05-17T07:07:36.466Z,16.60
2023-05-17T07:10:07.758Z,16.70
2023-05-17T07:12:35.193Z,16.70
2023-05-17T07:15:02.847Z,16.70
2023-05-17T07:17:30.686Z,16.70
2023-05-17T07:19:58.299Z,16.70
2023-05-17T07:22:25.964Z,16.60
2023-05-17T07:24:53.344Z,16.60
2023-05-17T07:27:20.747Z,16.50
2023-05-17T07:29:50.996Z,16.50
2023-05-17T07:32:18.411Z,16.40
2023-05-17T07:34:46.410Z,16.30
2023-05-17T07:37:13.951Z,16.30
2023-05-17T07:39:41.380Z,16.40
2023-05-17T07:42:08.946Z,16.30
2023-05-17T07:44:36.354Z,16.40
2023-05-17T07:47:03.888Z,16.50
2023-05-17T07:49:32.198Z,16.70
2023-05-17T07:51:59.674Z,16.90
2023-05-17T07:54:27.476Z,17.10
2023-05-17T07:56:55.472Z,17.40
2023-05-17T07:59:23.544Z,17.80
2023-05-17T08:01:51.326Z,18.20
2023-05-17T08:04:21.437Z,18.50
2023-05-17T08:06:50.089Z,18.80
2023-05-17T08:09:17.607Z,19.20
2023-05-17T08:11:47.947Z,19.20
2023-05-17T08:14:16.235Z,19.00
2023-05-17T08:16:45.480Z,18.60
2023-05-17T08:19:14.035Z,18.60
2023-05-17T08:21:42.601Z,18.60
2023-05-17T08:24:10.073Z,18.60
2023-05-17T08:26:40.947Z,18.70
2023-05-17T08:29:08.474Z,18.80
2023-05-17T08:31:35.861Z,18.90
2023-05-17T08:34:03.493Z,19.00
2023-05-17T08:36:31.046Z,19.00
2023-05-17T08:38:58.528Z,18.90
2023-05-17T08:41:25.989Z,18.90
2023-05-17T08:43:55.253Z,18.90
2023-05-17T08:46:23.907Z,19.00
2023-05-17T08:48:53.432Z,19.00
2023-05-17T08:51:21.898Z,19.10
2023-05-17T08:53:50.738Z,19.40
2023-05-17T08:56:20.764Z,19.60
2023-05-17T08:58:57.107Z,19.80
2023-05-17T09:01:27.428Z,20.00
2023-05-17T09:03:56.484Z,20.10
2023-05-17T09:06:24.733Z,20.00
2023-05-17T09:08:54.607Z,20.20
2023-05-17T09:11:30.273Z,20.30
2023-05-17T09:14:02.812Z,20.50
2023-05-17T09:16:35.191Z,20.60
2023-05-17T09:19:03.907Z,20.80
2023-05-17T09:21:32.789Z,20.90
2023-05-17T09:26:42.345Z,21.00
2023-05-17T09:29:10.560Z,21.10
2023-05-17T09:31:38.574Z,21.30
2023-05-17T09:34:08.143Z,21.40
2023-05-17T09:36:38.091Z,21.40
2023-05-17T09:39:10.787Z,21.40
2023-05-17T09:41:41.383Z,21.30
2023-05-17T09:44:10.427Z,21.20
2023-05-17T09:46:48.836Z,21.20
2023-05-17T09:49:17.447Z,21.10
2023-05-17T09:51:47.468Z,21.20
2023-05-17T09:54:14.967Z,21.40
2023-05-17T09:56:43.182Z,21.80
2023-05-17T09:59:15.599Z,21.80
2023-05-17T10:01:45.333Z,22.00
2023-05-17T10:04:14.712Z,22.10
2023-05-17T10:06:49.730Z,22.20
2023-05-17T10:09:22.438Z,22.30
2023-05-17T10:11:52.934Z,22.50
2023-05-17T10:14:35.008Z,22.60
2023-05-17T10:17:03.431Z,22.80
2023-05-17T10:19:31.315Z,22.70
2023-05-17T10:22:10.986Z,22.70
2023-05-17T10:24:48.023Z,22.60
2023-05-17T10:27:16.389Z,22.50
2023-05-17T10:29:45.043Z,22.40
2023-05-17T10:32:15.441Z,22.10
2023-05-17T10:34:45.705Z,21.90
2023-05-17T10:37:14.098Z,21.70
2023-05-17T10:39:43.681Z,21.60
2023-05-17T10:42:15.201Z,21.40
2023-05-17T10:44:43.578Z,21.40
2023-05-17T10:47:12.138Z,21.40
2023-05-17T10:49:41.502Z,21.50
2023-05-17T10:52:19.007Z,21.40
2023-05-17T10:54:50.393Z,21.50
2023-05-17T10:57:36.064Z,21.40
2023-05-17T11:00:20.596Z,21.40
2023-05-17T11:02:49.048Z,21.20
2023-05-17T11:05:24.846Z,21.20
2023-05-17T11:07:52.336Z,21.10
2023-05-17T11:10:20.067Z,21.10
2023-05-17T11:12:54.189Z,21.20
2023-05-17T11:15:26.542Z,21.30
2023-05-17T11:17:55.181Z,21.30
2023-05-17T11:20:25.801Z,21.30
2023-05-17T11:23:05.620Z,21.40
2023-05-17T11:25:33.076Z,21.30
2023-05-17T11:28:00.696Z,21.20
2023-05-17T11:30:32.685Z,21.20
2023-05-17T11:33:13.495Z,20.90
2023-05-17T11:35:49.996Z,20.80
2023-05-17T11:38:21.582Z,20.70
2023-05-17T11:40:52.628Z,20.90
2023-05-17T11:43:22.850Z,21.00
2023-05-17T11:45:57.688Z,21.00
2023-05-17T11:48:26.752Z,21.20
2023-05-17T11:50:56.698Z,21.30
2023-05-17T11:53:27.751Z,21.50
2023-05-17T11:55:56.359Z,21.50
2023-05-17T11:58:27.539Z,21.50
2023-05-17T12:01:01.620Z,21.20
2023-05-17T12:03:29.802Z,21.30
2023-05-17T12:06:09.585Z,21.40
2023-05-17T12:08:39.177Z,21.50
2023-05-17T12:11:07.978Z,21.50
2023-05-17T12:13:35.906Z,21.40
2023-05-17T12:16:07.188Z,21.30
2023-05-17T12:18:52.174Z,21.40
2023-05-17T12:21:21.368Z,21.20
2023-05-17T12:23:52.497Z,21.20
2023-05-17T12:26:22.041Z,21.30
2023-05-17T12:28:56.550Z,21.50
2023-05-17T12:31:36.880Z,21.50
2023-05-17T12:34:09.494Z,21.60
2023-05-17T12:36:37.421Z,21.50
2023-05-17T12:39:08.543Z,21.10
2023-05-17T12:41:40.188Z,21.30
2023-05-17T12:44:15.485Z,21.60
2023-05-17T12:46:44.844Z,21.90
2023-05-17T12:49:12.642Z,21.90
2023-05-17T12:51:45.488Z,22.00
2023-05-17T12:54:26.484Z,22.00
2023-05-17T12:56:55.006Z,22.10
2023-05-17T12:59:25.374Z,22.20
2023-05-17T13:01:57.804Z,22.20
2023-05-17T13:04:33.547Z,22.00
2023-05-17T13:07:03.483Z,22.20
2023-05-17T13:09:33.716Z,22.20
2023-05-17T13:12:06.843Z,22.20
2023-05-17T13:14:43.518Z,22.10
2023-05-17T13:17:27.601Z,22.20
2023-05-17T13:19:57.972Z,22.40
2023-05-17T13:22:26.169Z,22.50
2023-05-17T13:24:54.228Z,22.20
2023-05-17T13:27:21.679Z,22.10
2023-05-17T13:29:49.115Z,22.00
2023-05-17T13:32:16.584Z,22.10
2023-05-17T13:34:44.013Z,21.80
2023-05-17T13:37:12.488Z,21.60
2023-05-17T13:39:41.838Z,21.50
2023-05-17T13:42:10.926Z,21.20
2023-05-17T13:44:39.353Z,21.00
2023-05-17T13:47:07.370Z,21.00
2023-05-17T13:49:34.895Z,21.00
2023-05-17T13:52:02.350Z,20.90
2023-05-17T13:54:29.758Z,20.90
2023-05-17T13:56:57.546Z,20.90
2023-05-17T13:59:25.113Z,20.90
2023-05-17T14:01:53.111Z,20.80
2023-05-17T14:04:21.367Z,20.80
2023-05-17T14:06:50.668Z,20.70
2023-05-17T14:09:19.135Z,20.80
2023-05-17T14:11:46.651Z,20.70
2023-05-17T14:14:14.050Z,20.70
2023-05-17T14:16:41.513Z,20.70
2023-05-17T14:19:09.973Z,20.80
2023-05-17T14:21:37.480Z,20.70
2023-05-17T14:24:05.164Z,20.70
2023-05-17T14:26:32.567Z,20.70
2023-05-17T14:29:00.154Z,20.80
2023-05-17T14:31:29.931Z,20.90
2023-05-17T14:33:57.542Z,20.80
2023-05-17T14:36:25.151Z,20.90
2023-05-17T14:38:52.596Z,20.90
2023-05-17T14:41:20.122Z,20.90
2023-05-17T14:43:47.504Z,20.80
2023-05-17T14:46:14.952Z,20.70
2023-05-17T14:48:42.379Z,20.60
2023-05-17T14:51:09.897Z,20.40
2023-05-17T14:53:37.444Z,20.30
2023-05-17T14:56:05.071Z,20.50
2023-05-17T14:58:32.580Z,20.60
2023-05-17T15:01:05.136Z,20.80
2023-05-17T15:03:33.767Z,21.00
2023-05-17T15:06:04.206Z,21.20
2023-05-17T15:08:34.581Z,21.10
2023-05-17T15:11:02.173Z,21.10
2023-05-17T15:13:29.630Z,21.10
2023-05-17T15:15:57.050Z,20.90
2023-05-17T15:18:24.608Z,20.80
2023-05-17T15:20:52.160Z,20.60
2023-05-17T15:23:19.637Z,20.60
2023-05-17T15:25:47.020Z,20.50
2023-05-17T15:28:14.866Z,20.50
2023-05-17T15:30:42.352Z,20.40
2023-05-17T15:33:10.172Z,20.30
2023-05-17T15:35:41.482Z,20.30
2023-05-17T15:38:08.998Z,20.30
2023-05-17T15:40:36.377Z,20.30
2023-05-17T15:43:03.837Z,20.30
2023-05-17T15:45:31.581Z,20.30
2023-05-17T15:48:01.863Z,20.10
2023-05-17T15:50:29.415Z,20.00
2023-05-17T15:52:56.842Z,20.00
2023-05-17T15:55:24.385Z,20.00
2023-05-17T15:57:51.805Z,19.90
2023-05-17T16:00:20.171Z,19.90
2023-05-17T16:02:47.712Z,19.80
2023-05-17T16:05:15.145Z,19.90
2023-05-17T16:07:42.655Z,19.90
2023-05-17T16:10:10.663Z,19.80
2023-05-17T16:12:38.099Z,19.80
2023-05-17T16:15:06.121Z,19.80
2023-05-17T16:17:33.735Z,19.90
2023-05-17T16:20:01.626Z,20.00
2023-05-17T16:22:29.151Z,19.90
2023-05-17T16:24:57.153Z,20.00
2023-05-17T16:27:24.661Z,20.00
2023-05-17T16:29:52.091Z,20.20
2023-05-17T16:32:19.576Z,20.20
2023-05-17T16:34:47.224Z,20.10
2023-05-17T16:37:14.687Z,20.10
2023-05-17T16:39:42.110Z,20.00
2023-05-17T16:42:09.551Z,19.90
2023-05-17T16:44:37.333Z,20.00
2023-05-17T16:47:05.009Z,19.90
2023-05-17T16:49:32.427Z,19.80
2023-05-17T16:51:59.905Z,19.80
2023-05-17T16:54:28.552Z,19.70
2023-05-17T16:56:56.461Z,19.70
2023-05-17T16:59:23.989Z,19.70
2023-05-17T17:01:51.507Z,19.60
2023-05-17T17:04:19.439Z,19.50
2023-05-17T17:06:46.888Z,19.40
2023-05-17T17:09:15.043Z,19.40
2023-05-17T17:11:42.545Z,19.40
2023-05-17T17:14:10.990Z,19.30
2023-05-17T17:16:38.732Z,19.30
2023-05-17T17:19:06.589Z,19.30
2023-05-17T17:21:38.762Z,19.20
2023-05-17T17:24:06.992Z,19.20
2023-05-17T17:26:35.461Z,19.20
2023-05-17T17:29:08.221Z,19.10
2023-05-17T17:31:35.827Z,19.10
2023-05-17T17:34:03.404Z,19.00
2023-05-17T17:36:31.128Z,19.00
2023-05-17T17:38:58.593Z,19.00
2023-05-17T17:41:26.559Z,18.90
2023-05-17T17:43:53.988Z,18.90
2023-05-17T17:46:21.494Z,18.90
2023-05-17T17:48:48.894Z,18.80
2023-05-17T17:51:16.284Z,18.80
2023-05-17T17:53:43.706Z,18.70
2023-05-17T17:56:11.423Z,18.70
2023-05-17T17:58:38.850Z,18.70
2023-05-17T18:01:06.333Z,18.60
2023-05-17T18:03:33.901Z,18.60
2023-05-17T18:06:01.532Z,18.50
2023-05-17T18:08:28.974Z,18.50
2023-05-17T18:10:56.497Z,18.50
2023-05-17T18:13:23.939Z,18.40
2023-05-17T18:15:51.340Z,18.40
2023-05-17T18:18:18.772Z,18.40
2023-05-17T18:20:46.218Z,18.30
2023-05-17T18:23:13.657Z,18.20
2023-05-17T18:25:41.073Z,18.10
2023-05-17T18:28:09.068Z,18.10
2023-05-17T18:30:36.637Z,18.00
2023-05-17T18:33:04.395Z,17.90
2023-05-17T18:35:31.816Z,17.90
2023-05-17T18:38:02.424Z,17.80
2023-05-17T18:40:30.111Z,17.80
2023-05-17T18:42:57.717Z,17.70
2023-05-17T18:45:25.148Z,17.70
2023-05-17T18:47:52.580Z,17.70
2023-05-17T18:50:20.013Z,17.60
2023-05-17T18:52:47.485Z,17.70
2023-05-17T18:55:14.932Z,17.70
2023-05-17T18:57:43.001Z,17.70
2023-05-17T19:00:11.069Z,17.70
2023-05-17T19:02:38.614Z,17.70
2023-05-17T19:05:06.882Z,17.60
2023-05-17T19:07:34.426Z,17.60
2023-05-17T19:10:01.919Z,17.60
2023-05-17T19:12:29.332Z,17.50
2023-05-17T19:14:56.788Z,17.50
2023-05-17T19:17:26.996Z,17.50
2023-05-17T19:19:54.451Z,17.50
2023-05-17T19:22:22.049Z,17.40
2023-05-17T19:24:50.847Z,17.40
2023-05-17T19:27:19.816Z,17.30
2023-05-17T19:29:48.098Z,17.30
2023-05-17T19:32:15.547Z,17.20
2023-05-17T19:34:43.064Z,17.20
2023-05-17T19:37:10.541Z,17.20
2023-05-17T19:39:38.021Z,17.30
2023-05-17T19:42:06.317Z,17.30
2023-05-17T19:44:33.748Z,17.30
2023-05-17T19:47:01.694Z,17.30
2023-05-17T19:49:29.222Z,17.30
2023-05-17T19:52:00.600Z,17.30
2023-05-17T19:54:30.884Z,17.30
2023-05-17T19:56:59.556Z,17.30
2023-05-17T19:59:27.003Z,17.20
2023-05-17T20:01:54.468Z,17.30
2023-05-17T20:04:21.893Z,17.20
2023-05-17T20:06:49.478Z,17.20
2023-05-17T20:09:16.978Z,17.10
2023-05-17T20:11:44.539Z,17.10
2023-05-17T20:14:12.434Z,17.10
2023-05-17T20:16:39.959Z,17.00
2023-05-17T20:19:07.454Z,17.00
2023-05-17T20:21:34.928Z,17.00
2023-05-17T20:24:03.978Z,16.90
2023-05-17T20:26:36.330Z,16.90
2023-05-17T20:29:05.678Z,16.80
2023-05-17T20:31:34.480Z,16.80
2023-05-17T20:34:02.933Z,16.80
2023-05-17T20:36:31.349Z,16.80
2023-05-17T20:38:58.816Z,16.70
2023-05-17T20:41:27.420Z,16.70
2023-05-17T20:43:54.859Z,16.70
2023-05-17T20:46:22.358Z,16.70
2023-05-17T20:48:50.531Z,16.60
2023-05-17T20:51:19.547Z,16.70
2023-05-17T20:53:46.986Z,16.70
2023-05-17T20:56:14.460Z,16.60
2023-05-17T20:58:41.849Z,16.60
2023-05-17T21:01:09.510Z,16.50
2023-05-17T21:03:39.669Z,16.50
2023-05-17T21:06:07.530Z,16.60
2023-05-17T21:08:35.729Z,16.60
2023-05-17T21:11:03.159Z,16.60
2023-05-17T21:13:31.071Z,16.60
2023-05-17T21:15:58.595Z,16.60
2023-05-17T21:18:26.320Z,16.60
2023-05-17T21:20:55.455Z,16.60
2023-05-17T21:23:22.882Z,16.60
2023-05-17T21:25:50.286Z,16.50
2023-05-17T21:28:18.605Z,16.50
2023-05-17T21:30:46.048Z,16.50
2023-05-17T21:33:13.554Z,16.50
2023-05-17T21:35:41.091Z,16.50
2023-05-17T21:38:09.536Z,16.50
2023-05-17T21:40:38.016Z,16.40
2023-05-17T21:43:07.345Z,16.40
2023-05-17T21:45:34.998Z,16.40
2023-05-17T21:48:02.515Z,16.40
2023-05-17T21:50:31.120Z,16.40
2023-05-17T21:52:58.973Z,16.40
2023-05-17T21:55:28.317Z,16.40
2023-05-17T21:57:57.534Z,16.40
2023-05-17T22:00:28.793Z,16.30
2023-05-17T22:02:56.557Z,16.30
2023-05-17T22:05:24.130Z,16.30
2023-05-17T22:07:51.561Z,16.30
2023-05-17T22:10:20.719Z,16.30
2023-05-17T22:12:50.230Z,16.30
2023-05-17T22:15:18.559Z,16.30
2023-05-17T22:17:51.792Z,16.30
2023-05-17T22:20:23.674Z,16.20
2023-05-17T22:22:51.475Z,16.30
2023-05-17T22:25:18.845Z,16.30
2023-05-17T22:27:46.364Z,16.20
2023-05-17T22:30:13.945Z,16.20
2023-05-17T22:32:41.431Z,16.10
2023-05-17T22:35:09.039Z,16.20
2023-05-17T22:37:37.523Z,16.20
2023-05-17T22:40:06.605Z,16.20
2023-05-17T22:42:33.998Z,16.20
2023-05-17T22:45:01.634Z,16.20
2023-05-17T22:47:29.085Z,16.20
2023-05-17T22:49:57.702Z,16.10
2023-05-17T22:52:25.120Z,16.10
2023-05-17T22:54:52.743Z,16.10
2023-05-17T22:57:21.085Z,16.10
2023-05-17T22:59:48.538Z,16.10
2023-05-17T23:02:16.239Z,16.10
2023-05-17T23:04:45.973Z,16.10
2023-05-17T23:07:14.983Z,16.10
2023-05-17T23:09:42.494Z,16.10
2023-05-17T23:12:14.021Z,16.00
2023-05-17T23:14:41.630Z,16.00
2023-05-17T23:17:09.972Z,16.10
2023-05-17T23:19:37.441Z,16.00
2023-05-17T23:22:06.448Z,16.00
2023-05-17T23:24:38.578Z,16.00
2023-05-17T23:27:10.306Z,16.00
2023-05-17T23:29:37.899Z,16.00
2023-05-17T23:32:05.716Z,15.90
2023-05-17T23:34:33.547Z,15.90
2023-05-17T23:37:00.936Z,15.90
2023-05-17T23:39:28.331Z,15.90
2023-05-17T23:41:55.752Z,15.90
2023-05-17T23:44:23.191Z,15.80
2023-05-17T23:46:53.811Z,15.80
2023-05-17T23:49:22.788Z,15.70
2023-05-17T23:51:50.496Z,15.70
2023-05-17T23:54:17.962Z,15.70
2023-05-17T23:56:45.703Z,15.60
2023-05-17T23:59:13.090Z,15.50
